Terminal Aerodrome Forecast
Issued by NWS

Home | Current Version | Previous Version | Text Only | Print | Product List | Glossary On
Versions: 1 2 3 4 5 6 7 8 9 10 11 12 13 14 15 16 17 18 19 20 21 22 23 24 25
893
FTUS44 KFWD 251503 AAB
TAFDAL
TAF AMD
KDAL 251503Z 2515/2612 VRB04KT P6SM VCSH FEW060 SCT110 BKN150
     FM251900 10007KT P6SM VCTS BKN070CB
     FM260100 13006KT P6SM BKN150
     FM261000 15006KT P6SM FEW040=

USA.gov is the U.S. government's official web portal to all federal, state and local government web resources and services.